createdAt,value
2023-11-23T00:00:17.320Z,13.12
2023-11-23T00:02:44.114Z,13.09
2023-11-23T00:05:11.155Z,12.92
2023-11-23T00:07:37.898Z,12.79
2023-11-23T00:10:06.906Z,13.11
2023-11-23T00:12:33.723Z,13.13
2023-11-23T00:15:00.569Z,12.75
2023-11-23T00:17:27.324Z,12.31
2023-11-23T00:19:53.999Z,12.61
2023-11-23T00:22:20.736Z,13.75
2023-11-23T00:24:47.385Z,13.24
2023-11-23T00:27:15.440Z,13.03
2023-11-23T00:29:42.208Z,13.30
2023-11-23T00:32:09.033Z,12.61
2023-11-23T00:34:35.775Z,12.63
2023-11-23T00:37:02.475Z,13.24
2023-11-23T00:39:29.276Z,12.99
2023-11-23T00:41:56.030Z,12.71
2023-11-23T00:44:24.100Z,13.23
2023-11-23T00:46:50.774Z,12.74
2023-11-23T00:49:17.512Z,13.06
2023-11-23T00:51:44.316Z,12.95
2023-11-23T00:54:11.045Z,13.52
2023-11-23T00:56:37.817Z,13.47
2023-11-23T00:59:04.733Z,13.49
2023-11-23T01:01:32.825Z,12.73
2023-11-23T01:03:59.744Z,13.29
2023-11-23T01:06:27.439Z,12.33
2023-11-23T01:08:54.116Z,12.89
2023-11-23T01:11:20.787Z,12.66
2023-11-23T01:13:47.582Z,12.59
2023-11-23T01:16:14.261Z,12.39
2023-11-23T01:18:42.312Z,12.16
2023-11-23T01:21:09.061Z,12.31
2023-11-23T01:23:35.746Z,12.55
2023-11-23T01:26:02.462Z,12.68
2023-11-23T01:28:29.139Z,13.17
2023-11-23T01:31:20.556Z,13.33
2023-11-23T01:34:13.984Z,12.60
2023-11-23T01:36:40.750Z,12.41
2023-11-23T01:39:07.562Z,12.75
2023-11-23T01:41:34.274Z,13.53
2023-11-23T01:44:01.281Z,12.90
2023-11-23T01:46:28.032Z,13.15
2023-11-23T01:48:55.165Z,12.75
2023-11-23T01:51:23.357Z,13.25
2023-11-23T01:53:50.072Z,13.66
2023-11-23T01:56:16.834Z,12.79
2023-11-23T01:58:43.557Z,13.51
2023-11-23T02:01:10.277Z,13.39
2023-11-23T02:03:37.389Z,13.54
2023-11-23T02:06:05.026Z,13.68
2023-11-23T02:08:33.048Z,13.18
2023-11-23T02:10:59.802Z,13.54
2023-11-23T02:13:26.480Z,13.43
2023-11-23T02:15:53.729Z,13.20
2023-11-23T02:18:20.548Z,15.51
2023-11-23T02:20:47.290Z,20.83
2023-11-23T02:23:13.983Z,14.58
2023-11-23T02:25:42.069Z,13.93
2023-11-23T02:28:08.772Z,13.31
2023-11-23T02:30:35.520Z,13.21
2023-11-23T02:33:02.306Z,13.32
2023-11-23T02:35:29.681Z,13.22
2023-11-23T02:37:56.351Z,13.13
2023-11-23T02:40:23.125Z,12.53
2023-11-23T02:42:51.161Z,12.90
2023-11-23T02:45:17.961Z,13.08
2023-11-23T02:47:44.706Z,12.68
2023-11-23T02:50:11.972Z,12.85
2023-11-23T02:52:38.638Z,13.16
2023-11-23T02:55:06.209Z,13.90
2023-11-23T02:57:32.951Z,13.42
2023-11-23T03:00:01.024Z,13.26
2023-11-23T03:02:27.801Z,12.62
2023-11-23T03:04:54.531Z,13.45
2023-11-23T03:07:21.208Z,13.12
2023-11-23T03:09:47.920Z,12.99
2023-11-23T03:12:14.629Z,13.14
2023-11-23T03:14:41.318Z,13.38
2023-11-23T03:17:09.524Z,13.68
2023-11-23T03:19:36.314Z,13.50
2023-11-23T03:22:03.341Z,13.93
2023-11-23T03:24:30.123Z,13.67
2023-11-23T03:26:56.866Z,13.85
2023-11-23T03:29:23.594Z,14.85
2023-11-23T03:31:51.421Z,14.84
2023-11-23T03:34:19.501Z,14.62
2023-11-23T03:36:46.202Z,14.20
2023-11-23T03:39:13.088Z,13.86
2023-11-23T03:41:40.393Z,14.30
2023-11-23T03:44:07.090Z,13.76
2023-11-23T03:46:33.773Z,13.45
2023-11-23T03:49:00.510Z,13.85
2023-11-23T03:51:28.550Z,14.33
2023-11-23T03:53:55.394Z,14.37
2023-11-23T03:56:22.144Z,14.15
2023-11-23T03:58:48.992Z,14.34
2023-11-23T04:01:15.914Z,14.44
2023-11-23T04:03:42.716Z,14.30
2023-11-23T04:06:09.743Z,14.30
2023-11-23T04:08:38.307Z,14.23
2023-11-23T04:11:05.711Z,14.58
2023-11-23T04:13:32.433Z,14.30
2023-11-23T04:15:59.176Z,14.27
2023-11-23T04:18:25.858Z,14.44
2023-11-23T04:20:52.691Z,14.86
2023-11-23T04:23:19.367Z,14.19
2023-11-23T04:25:47.459Z,14.52
2023-11-23T04:28:14.158Z,14.40
2023-11-23T04:30:40.858Z,15.18
2023-11-23T04:33:07.711Z,14.69
2023-11-23T04:35:34.445Z,14.41
2023-11-23T04:38:01.133Z,14.35
2023-11-23T04:40:27.783Z,14.34
2023-11-23T04:42:55.856Z,14.89
2023-11-23T04:45:22.649Z,14.45
2023-11-23T04:47:49.402Z,13.97
2023-11-23T04:50:18.131Z,14.03
2023-11-23T04:52:46.796Z,14.28
2023-11-23T04:55:13.504Z,13.24
2023-11-23T04:57:40.198Z,13.90
2023-11-23T05:00:09.591Z,13.92
2023-11-23T05:02:36.385Z,14.43
2023-11-23T05:05:03.222Z,14.55
2023-11-23T05:07:29.920Z,14.18
2023-11-23T05:09:56.598Z,14.26
2023-11-23T05:12:23.325Z,15.19
2023-11-23T05:14:50.136Z,14.75
2023-11-23T05:17:18.150Z,14.26
2023-11-23T05:19:44.861Z,14.64
2023-11-23T05:22:11.612Z,15.05
2023-11-23T05:24:38.350Z,14.83
2023-11-23T05:27:05.481Z,14.52
2023-11-23T05:29:32.220Z,15.72
2023-11-23T05:31:58.942Z,15.82
2023-11-23T05:34:26.982Z,15.42
2023-11-23T05:36:53.710Z,15.12
2023-11-23T05:39:20.831Z,14.55
2023-11-23T05:41:47.608Z,15.17
2023-11-23T05:44:14.342Z,14.84
2023-11-23T05:46:41.071Z,15.18
2023-11-23T05:49:08.250Z,15.46
2023-11-23T05:51:36.396Z,14.98
2023-11-23T05:54:03.246Z,16.10
2023-11-23T05:56:29.977Z,15.47
2023-11-23T05:58:56.644Z,15.41
2023-11-23T06:01:23.315Z,15.27
2023-11-23T06:03:50.200Z,15.25
2023-11-23T06:06:20.451Z,15.19
2023-11-23T06:08:48.717Z,15.06
2023-11-23T06:11:15.409Z,15.10
2023-11-23T06:13:44.035Z,15.60
2023-11-23T06:16:12.039Z,15.32
2023-11-23T06:18:38.887Z,15.36
2023-11-23T06:21:06.012Z,15.16
2023-11-23T06:23:32.713Z,16.42
2023-11-23T06:26:00.780Z,15.71
2023-11-23T06:28:27.455Z,15.74
2023-11-23T06:30:54.178Z,15.87
2023-11-23T06:33:20.976Z,15.35
2023-11-23T06:35:47.867Z,15.67
2023-11-23T06:38:14.546Z,15.59
2023-11-23T06:40:41.286Z,16.08
2023-11-23T06:43:09.303Z,15.38
2023-11-23T06:45:35.987Z,16.03
2023-11-23T06:48:02.841Z,15.37
2023-11-23T06:50:29.697Z,15.16
2023-11-23T06:52:56.350Z,15.23
2023-11-23T06:55:23.097Z,15.86
2023-11-23T06:57:49.901Z,17.46
2023-11-23T07:00:18.717Z,26.24
2023-11-23T07:02:45.423Z,21.62
2023-11-23T07:05:12.248Z,16.49
2023-11-23T07:07:38.939Z,15.48
2023-11-23T07:10:06.769Z,15.52
2023-11-23T07:12:33.477Z,15.71
2023-11-23T07:15:00.414Z,15.16
2023-11-23T07:17:28.506Z,15.23
2023-11-23T07:19:55.276Z,16.02
2023-11-23T07:22:21.971Z,15.63
2023-11-23T07:24:48.692Z,15.97
2023-11-23T07:27:15.497Z,15.98
2023-11-23T07:29:42.259Z,15.67
2023-11-23T07:32:09.000Z,15.79
2023-11-23T07:34:37.988Z,15.86
2023-11-23T07:37:04.656Z,15.69
2023-11-23T07:39:31.382Z,16.10
2023-11-23T07:41:58.172Z,15.76
2023-11-23T07:44:24.932Z,16.45
2023-11-23T07:46:51.611Z,16.35
2023-11-23T07:49:18.381Z,16.72
2023-11-23T07:51:46.552Z,16.98
2023-11-23T07:54:13.265Z,16.84
2023-11-23T07:56:39.957Z,15.89
2023-11-23T07:59:06.649Z,15.00
2023-11-23T08:01:33.377Z,15.73
2023-11-23T08:04:00.300Z,15.15
2023-11-23T08:06:27.138Z,15.22
2023-11-23T08:08:55.190Z,15.31
2023-11-23T08:11:21.970Z,15.25
2023-11-23T08:13:48.622Z,14.27
2023-11-23T08:16:15.405Z,15.22
2023-11-23T08:18:49.578Z,15.34
2023-11-23T08:21:17.085Z,14.70
2023-11-23T08:23:43.816Z,14.99
2023-11-23T08:26:12.004Z,15.70
2023-11-23T08:28:38.788Z,15.48
2023-11-23T08:31:07.600Z,15.20
2023-11-23T08:33:34.327Z,15.35
2023-11-23T08:36:01.162Z,14.59
2023-11-23T08:38:27.867Z,15.16
2023-11-23T08:40:54.576Z,14.91
2023-11-23T08:43:22.637Z,14.95
2023-11-23T08:45:49.378Z,14.70
2023-11-23T08:48:16.147Z,15.06
2023-11-23T08:50:42.891Z,14.43
2023-11-23T08:53:09.605Z,14.15
2023-11-23T08:55:36.340Z,14.57
2023-11-23T08:58:03.068Z,14.45
2023-11-23T09:00:31.204Z,15.08
2023-11-23T09:02:58.036Z,14.03
2023-11-23T09:05:24.946Z,14.43
2023-11-23T09:07:51.753Z,14.78
2023-11-23T09:10:18.631Z,14.80
2023-11-23T09:12:45.302Z,13.97
2023-11-23T09:15:12.073Z,14.39
2023-11-23T09:17:40.206Z,13.65
2023-11-23T09:20:08.468Z,14.04
2023-11-23T09:22:35.320Z,14.55
2023-11-23T09:25:02.106Z,14.03
2023-11-23T09:27:28.870Z,13.21
2023-11-23T09:29:55.650Z,13.76
2023-11-23T09:32:22.389Z,14.03
2023-11-23T09:34:50.390Z,13.74
2023-11-23T09:37:17.150Z,13.06
2023-11-23T09:39:43.984Z,13.59
2023-11-23T09:42:10.696Z,13.46
2023-11-23T09:44:37.635Z,13.02
2023-11-23T09:47:04.934Z,13.43
2023-11-23T09:49:31.669Z,13.41
2023-11-23T09:51:59.705Z,13.33
2023-11-23T09:54:26.505Z,13.27
2023-11-23T09:56:53.405Z,13.58
2023-11-23T09:59:20.108Z,13.16
2023-11-23T10:01:47.012Z,12.84
2023-11-23T10:04:13.887Z,11.82
2023-11-23T10:06:40.733Z,13.41
2023-11-23T10:09:08.991Z,12.41
2023-11-23T10:11:35.696Z,12.55
2023-11-23T10:14:02.412Z,12.44
2023-11-23T10:16:31.386Z,12.42
2023-11-23T10:18:58.169Z,12.48
2023-11-23T10:21:24.939Z,13.12
2023-11-23T10:23:51.607Z,12.74
2023-11-23T10:26:19.639Z,12.32
2023-11-23T10:28:46.334Z,12.04
2023-11-23T10:31:14.059Z,12.02
2023-11-23T10:33:41.052Z,12.09
2023-11-23T10:36:08.364Z,12.23
2023-11-23T10:38:43.238Z,12.17
2023-11-23T10:41:11.341Z,12.50
2023-11-23T10:43:39.339Z,11.83
2023-11-23T10:46:07.941Z,12.63
2023-11-23T10:48:34.737Z,11.93
2023-11-23T10:51:02.791Z,11.95
2023-11-23T10:53:29.895Z,13.23
2023-11-23T10:55:57.002Z,12.69
2023-11-23T10:58:23.658Z,12.88
2023-11-23T11:00:51.749Z,13.68
2023-11-23T11:03:18.449Z,13.51
2023-11-23T11:05:48.201Z,12.66
2023-11-23T11:08:17.686Z,14.06
2023-11-23T11:10:48.111Z,14.60
2023-11-23T11:13:16.181Z,14.53
2023-11-23T11:15:51.117Z,14.29
2023-11-23T11:18:21.331Z,14.46
2023-11-23T11:20:59.620Z,14.53
2023-11-23T11:23:36.451Z,13.73
2023-11-23T11:26:06.943Z,14.35
2023-11-23T11:28:33.807Z,13.90
2023-11-23T11:31:07.608Z,14.45
2023-11-23T11:33:34.518Z,14.30
2023-11-23T11:36:01.311Z,14.77
2023-11-23T11:38:28.086Z,14.68
2023-11-23T11:40:54.765Z,15.78
2023-11-23T11:43:21.952Z,15.45
2023-11-23T11:45:48.646Z,15.19
2023-11-23T11:48:16.789Z,15.55
2023-11-23T11:50:43.485Z,15.95
2023-11-23T11:53:10.170Z,15.06
2023-11-23T11:55:36.892Z,15.57
2023-11-23T11:58:05.687Z,15.51
2023-11-23T12:00:34.781Z,15.35
2023-11-23T12:03:01.628Z,15.85
2023-11-23T12:05:29.909Z,15.03
2023-11-23T12:07:56.683Z,15.23
2023-11-23T12:10:23.375Z,15.03
2023-11-23T12:12:50.100Z,18.97
2023-11-23T12:15:17.657Z,23.15
2023-11-23T12:17:50.865Z,19.08
2023-11-23T12:20:17.713Z,18.09
2023-11-23T12:22:45.725Z,21.40
2023-11-23T12:25:12.425Z,18.86
2023-11-23T12:27:41.965Z,18.44
2023-11-23T12:30:09.492Z,17.07
2023-11-23T12:32:36.219Z,17.53
2023-11-23T12:35:03.108Z,17.64
2023-11-23T12:37:29.801Z,17.10
2023-11-23T12:39:57.837Z,16.55
2023-11-23T12:42:24.671Z,16.59
2023-11-23T12:44:51.561Z,16.57
2023-11-23T12:47:18.364Z,16.49
2023-11-23T12:49:45.078Z,16.15
2023-11-23T12:52:11.796Z,16.85
2023-11-23T12:54:38.541Z,16.52
2023-11-23T12:57:06.739Z,15.78
2023-11-23T12:59:33.486Z,16.71
2023-11-23T13:02:00.366Z,16.43
2023-11-23T13:04:27.250Z,15.62
2023-11-23T13:06:53.984Z,15.29
2023-11-23T13:09:20.739Z,16.01
2023-11-23T13:11:47.446Z,15.95
2023-11-23T13:14:15.519Z,17.61
2023-11-23T13:16:42.216Z,19.55
2023-11-23T13:19:17.233Z,24.40
2023-11-23T13:21:53.476Z,17.65
2023-11-23T13:24:20.432Z,17.24
2023-11-23T13:26:47.144Z,16.53
2023-11-23T13:29:15.242Z,15.87
2023-11-23T13:31:41.980Z,14.80
2023-11-23T13:34:08.725Z,13.71
2023-11-23T13:36:35.498Z,13.79
2023-11-23T13:39:02.636Z,13.71
2023-11-23T13:41:29.339Z,12.72
2023-11-23T13:43:56.066Z,12.65
2023-11-23T13:46:24.135Z,12.76
2023-11-23T13:48:50.882Z,12.89
2023-11-23T13:51:17.577Z,12.87
2023-11-23T13:53:44.378Z,12.63
2023-11-23T13:56:11.075Z,12.47
2023-11-23T13:58:37.785Z,12.46
2023-11-23T14:01:04.577Z,12.98
2023-11-23T14:03:32.714Z,12.86
2023-11-23T14:05:59.471Z,13.01
2023-11-23T14:08:26.178Z,12.58
2023-11-23T14:10:52.835Z,12.76
2023-11-23T14:13:19.578Z,13.16
2023-11-23T14:15:46.443Z,13.38
2023-11-23T14:18:13.339Z,13.29
2023-11-23T14:20:41.576Z,12.90
2023-11-23T14:23:08.260Z,12.79
2023-11-23T14:25:35.008Z,13.23
2023-11-23T14:28:01.782Z,13.27
2023-11-23T14:30:28.587Z,13.62
2023-11-23T14:32:55.461Z,12.92
2023-11-23T14:35:22.962Z,12.78
2023-11-23T14:37:51.113Z,12.79
2023-11-23T14:40:17.913Z,12.61
2023-11-23T14:42:55.717Z,13.53
2023-11-23T14:45:24.014Z,13.01
2023-11-23T14:47:50.769Z,12.39
2023-11-23T14:50:17.673Z,12.73
2023-11-23T14:52:44.358Z,12.91
2023-11-23T14:55:12.431Z,12.63
2023-11-23T14:57:39.248Z,12.34
2023-11-23T15:00:08.553Z,12.57
2023-11-23T15:02:35.340Z,13.07
2023-11-23T15:05:02.024Z,12.13
2023-11-23T15:07:28.763Z,13.18
2023-11-23T15:09:55.475Z,13.25
2023-11-23T15:12:24.110Z,12.78
2023-11-23T15:14:51.991Z,12.93
2023-11-23T15:17:18.676Z,13.21
2023-11-23T15:19:45.426Z,12.73
2023-11-23T15:22:12.130Z,12.92
2023-11-23T15:24:38.906Z,13.66
2023-11-23T15:27:05.685Z,13.56
2023-11-23T15:29:33.758Z,13.45
2023-11-23T15:32:00.493Z,13.67
2023-11-23T15:34:27.225Z,14.01
2023-11-23T15:36:53.922Z,13.97
2023-11-23T15:39:20.673Z,14.13
2023-11-23T15:41:47.364Z,14.22
2023-11-23T15:44:14.255Z,15.28
2023-11-23T15:46:42.598Z,16.72
2023-11-23T15:49:09.966Z,16.73
2023-11-23T15:51:36.737Z,16.39
2023-11-23T15:54:03.621Z,15.95
2023-11-23T15:56:30.300Z,16.04
2023-11-23T15:58:56.991Z,15.96
2023-11-23T16:01:23.789Z,16.22
2023-11-23T16:03:51.944Z,16.84
2023-11-23T16:06:18.767Z,17.36
2023-11-23T16:08:45.791Z,16.08
2023-11-23T16:11:12.529Z,16.89
2023-11-23T16:13:41.219Z,17.27
2023-11-23T16:16:08.158Z,25.01
2023-11-23T16:18:34.932Z,27.04
2023-11-23T16:21:03.005Z,25.66
2023-11-23T16:23:29.707Z,29.71
2023-11-23T16:25:56.458Z,32.69
2023-11-23T16:28:23.156Z,32.98
2023-11-23T16:30:49.906Z,32.53
2023-11-23T16:33:16.796Z,29.19
2023-11-23T16:35:43.574Z,25.40
2023-11-23T16:38:11.659Z,23.87
2023-11-23T16:40:38.380Z,23.79
2023-11-23T16:43:05.117Z,27.79
2023-11-23T16:45:31.876Z,47.87
2023-11-23T16:47:58.640Z,47.16
2023-11-23T16:50:25.372Z,30.90
2023-11-23T16:52:52.117Z,22.22
2023-11-23T16:55:20.162Z,19.08
2023-11-23T16:57:47.074Z,18.73
2023-11-23T17:00:14.922Z,19.03
2023-11-23T17:02:41.713Z,19.63
2023-11-23T17:05:09.533Z,19.70
2023-11-23T17:07:36.262Z,19.39
2023-11-23T17:10:03.367Z,20.31
2023-11-23T17:12:31.686Z,20.24
2023-11-23T17:14:58.375Z,20.49
2023-11-23T17:17:25.111Z,21.58
2023-11-23T17:19:51.824Z,22.59
2023-11-23T17:22:18.650Z,25.08
2023-11-23T17:24:45.438Z,23.91
2023-11-23T17:27:12.216Z,23.11
2023-11-23T17:29:40.305Z,22.21
2023-11-23T17:32:07.494Z,19.92
2023-11-23T17:34:34.988Z,19.08
2023-11-23T17:37:01.863Z,18.74
2023-11-23T17:39:28.558Z,18.75
2023-11-23T17:41:55.317Z,19.08
2023-11-23T17:44:22.079Z,20.05
2023-11-23T17:46:50.257Z,20.85
2023-11-23T17:49:16.950Z,20.13
2023-11-23T17:51:43.718Z,19.78
2023-11-23T17:54:10.448Z,20.02
2023-11-23T17:56:37.165Z,19.66
2023-11-23T17:59:19.762Z,19.64
2023-11-23T18:01:53.927Z,19.82
2023-11-23T18:04:20.905Z,19.68
2023-11-23T18:06:47.839Z,19.44
2023-11-23T18:09:15.887Z,19.42
2023-11-23T18:11:45.632Z,19.45
2023-11-23T18:14:12.769Z,20.21
2023-11-23T18:16:39.551Z,19.13
2023-11-23T18:19:13.428Z,19.42
2023-11-23T18:21:40.209Z,19.63
2023-11-23T18:24:07.012Z,19.61
2023-11-23T18:26:33.862Z,19.81
2023-11-23T18:29:00.553Z,20.33
2023-11-23T18:31:27.642Z,19.81
2023-11-23T18:33:54.445Z,20.88
2023-11-23T18:36:22.721Z,20.44
2023-11-23T18:38:49.416Z,20.74
2023-11-23T18:41:16.226Z,20.46
2023-11-23T18:43:43.086Z,20.67
2023-11-23T18:46:09.796Z,21.16
2023-11-23T18:48:36.634Z,21.99
2023-11-23T18:51:03.535Z,22.58
2023-11-23T18:53:31.652Z,24.50
2023-11-23T18:55:58.477Z,25.89
2023-11-23T18:58:25.165Z,25.90
2023-11-23T19:00:52.138Z,25.22
2023-11-23T19:03:19.145Z,23.99
2023-11-23T19:05:45.953Z,23.22
2023-11-23T19:08:12.819Z,22.56
2023-11-23T19:10:40.979Z,22.68
2023-11-23T19:13:07.815Z,22.77
2023-11-23T19:15:34.851Z,23.25
2023-11-23T19:18:02.156Z,22.44
2023-11-23T19:20:30.637Z,23.62
2023-11-23T19:23:00.870Z,22.74
2023-11-23T19:25:30.490Z,22.49
2023-11-23T19:28:00.973Z,22.57
2023-11-23T19:30:28.604Z,22.93
2023-11-23T19:32:55.786Z,23.08
2023-11-23T19:35:23.093Z,22.98
2023-11-23T19:37:59.580Z,23.74
2023-11-23T19:40:28.623Z,23.27
2023-11-23T19:42:56.029Z,23.01
2023-11-23T19:45:25.580Z,23.53
2023-11-23T19:47:53.120Z,22.37
2023-11-23T19:50:23.812Z,22.32
2023-11-23T19:52:52.293Z,22.98
2023-11-23T19:55:21.942Z,23.58
2023-11-23T19:57:54.217Z,24.24
2023-11-23T20:00:25.073Z,23.60
2023-11-23T20:02:52.155Z,23.84
2023-11-23T20:05:26.863Z,24.35
2023-11-23T20:07:53.683Z,28.75
2023-11-23T20:10:20.376Z,26.85
2023-11-23T20:12:47.366Z,24.34
2023-11-23T20:15:14.380Z,23.19
2023-11-23T20:17:42.613Z,21.69
2023-11-23T20:20:10.708Z,21.49
2023-11-23T20:22:37.493Z,21.53
2023-11-23T20:25:05.071Z,22.85
2023-11-23T20:27:31.992Z,22.25
2023-11-23T20:29:58.828Z,22.18
2023-11-23T20:32:25.556Z,21.57
2023-11-23T20:34:53.827Z,21.44
2023-11-23T20:37:20.728Z,21.89
2023-11-23T20:39:47.562Z,22.14
2023-11-23T20:42:14.939Z,22.11
2023-11-23T20:44:41.704Z,22.69
2023-11-23T20:47:08.661Z,22.36
2023-11-23T20:49:35.406Z,22.86
2023-11-23T20:52:03.891Z,22.24
2023-11-23T20:54:30.833Z,22.28
2023-11-23T20:56:58.222Z,22.12
2023-11-23T20:59:25.619Z,21.93
2023-11-23T21:01:52.996Z,21.68
2023-11-23T21:04:22.029Z,22.27
2023-11-23T21:06:58.960Z,22.18
2023-11-23T21:09:30.875Z,22.42
2023-11-23T21:11:57.624Z,23.26
2023-11-23T21:14:24.877Z,23.60
2023-11-23T21:16:51.714Z,24.64
2023-11-23T21:19:18.574Z,24.21
2023-11-23T21:21:45.689Z,24.03
2023-11-23T21:24:12.605Z,23.56
2023-11-23T21:26:40.627Z,24.27
2023-11-23T21:29:10.301Z,23.60
2023-11-23T21:31:37.142Z,23.38
2023-11-23T21:34:03.978Z,23.35
2023-11-23T21:36:30.715Z,23.26
2023-11-23T21:38:57.728Z,22.69
2023-11-23T21:41:24.614Z,22.64
2023-11-23T21:43:52.679Z,22.38
2023-11-23T21:46:19.540Z,22.28
2023-11-23T21:48:46.241Z,22.50
2023-11-23T21:51:19.037Z,23.49
2023-11-23T21:53:45.906Z,23.85
2023-11-23T21:56:12.804Z,28.69
2023-11-23T21:58:39.577Z,28.22
2023-11-23T22:01:07.786Z,26.21
2023-11-23T22:03:34.666Z,33.82
2023-11-23T22:06:01.584Z,31.72
2023-11-23T22:08:28.328Z,24.14
2023-11-23T22:10:55.004Z,24.76
2023-11-23T22:13:21.743Z,23.92
2023-11-23T22:15:48.915Z,24.54
2023-11-23T22:18:17.845Z,23.66
2023-11-23T22:20:44.783Z,22.98
2023-11-23T22:23:12.111Z,23.05
2023-11-23T22:25:39.378Z,25.75
2023-11-23T22:28:06.957Z,28.81
2023-11-23T22:30:34.330Z,27.08
2023-11-23T22:33:01.198Z,26.66
2023-11-23T22:35:30.353Z,24.63
2023-11-23T22:37:57.766Z,25.98
2023-11-23T22:40:25.186Z,25.04
2023-11-23T22:42:52.320Z,22.96
2023-11-23T22:45:19.721Z,21.57
2023-11-23T22:47:46.500Z,21.27
2023-11-23T22:50:13.302Z,20.86
2023-11-23T22:52:41.320Z,21.08
2023-11-23T22:55:08.754Z,21.07
2023-11-23T22:57:35.505Z,20.56
2023-11-23T23:00:02.238Z,21.26
2023-11-23T23:02:29.180Z,20.40
2023-11-23T23:04:55.963Z,20.10
2023-11-23T23:07:22.703Z,20.57
2023-11-23T23:09:50.895Z,20.83
2023-11-23T23:12:17.651Z,20.54
2023-11-23T23:14:44.337Z,21.03
2023-11-23T23:17:11.037Z,21.09
2023-11-23T23:19:37.788Z,20.91
2023-11-23T23:22:09.223Z,20.99
2023-11-23T23:24:40.722Z,20.68
2023-11-23T23:27:08.751Z,20.87
2023-11-23T23:29:35.521Z,21.36
2023-11-23T23:32:02.271Z,21.62
2023-11-23T23:34:29.138Z,21.35
2023-11-23T23:36:55.952Z,21.66
2023-11-23T23:39:22.697Z,21.83
2023-11-23T23:41:49.440Z,21.07
2023-11-23T23:44:17.496Z,20.39
2023-11-23T23:46:44.185Z,20.35
2023-11-23T23:49:10.897Z,20.62
2023-11-23T23:51:37.608Z,21.18
2023-11-23T23:54:04.455Z,21.06
2023-11-23T23:56:31.187Z,21.04
2023-11-23T23:58:57.954Z,20.56
